| time (UTC) | temp F | wind direction | speed MPH | gust MPH | rain 1hr in | rain 24hr in | rain mn in | humidity % | barometer mb |
| 20260509084403 | 77 | 80 | 5.0 | 12.0 | 0.02 | 0.14 | 0.12 | 90 | 1017.3 |
| 20260509083904 | 77 | 98 | 1.0 | 8.0 | 0.06 | 0.14 | 0.12 | 90 | 1017.3 |
| 20260509083403 | 76 | 101 | 2.0 | 8.0 | 0.11 | 0.14 | 0.12 | 91 | 1017.4 |
| 20260509082905 | 76 | 66 | 1.0 | 10.0 | 0.11 | 0.14 | 0.12 | 91 | 1017.5 |
| 20260509082403 | 76 | 90 | 3.0 | 9.0 | 0.11 | 0.14 | 0.12 | 91 | 1017.7 |
| 20260509081904 | 76 | 83 | 3.0 | 12.0 | 0.11 | 0.14 | 0.12 | 91 | 1017.7 |
| 20260509081404 | 76 | 102 | 2.0 | 10.0 | 0.11 | 0.14 | 0.12 | 91 | 1017.8 |
| 20260509080904 | 75 | 94 | 5.0 | 9.0 | 0.11 | 0.14 | 0.12 | 91 | 1017.8 |
| 20260509080404 | 76 | 93 | 2.0 | 3.0 | 0.11 | 0.14 | 0.12 | 91 | 1017.8 |
| 20260509075905 | 76 | 103 | 3.0 | 9.0 | 0.11 | 0.14 | 0.12 | 91 | 1017.9 |
| 20260509075405 | 75 | 69 | 2.0 | 7.0 | 0.11 | 0.14 | 0.12 | 91 | 1017.9 |
| 20260509074904 | 74 | 70 | 1.0 | 7.0 | 0.11 | 0.14 | 0.12 | 90 | 1018.0 |
| 20260509074404 | 74 | 66 | 2.0 | 10.0 | 0.09 | 0.13 | 0.10 | 90 | 1018.1 |
| 20260509073904 | 74 | 50 | 3.0 | 9.0 | 0.05 | 0.08 | 0.06 | 88 | 1018.3 |
| 20260509073405 | 75 | 33 | 5.0 | 13.0 | 0.00 | 0.03 | 0.01 | 86 | 1018.4 |
| 20260509072904 | 77 | 42 | 3.0 | 12.0 | 0.00 | 0.03 | 0.01 | 86 | 1018.4 |
| 20260509072404 | 77 | 113 | 1.0 | 10.0 | 0.00 | 0.03 | 0.01 | 85 | 1018.3 |
| 20260509071905 | 78 | 148 | 3.0 | 10.0 | 0.00 | 0.03 | 0.01 | 84 | 1018.3 |
| 20260509070903 | 78 | 85 | 4.0 | 12.0 | 0.00 | 0.03 | 0.01 | 81 | 1018.4 |
| 20260509070404 | 79 | 82 | 7.0 | 12.0 | 0.00 | 0.03 | 0.01 | 80 | 1018.5 |
| 20260509065904 | 79 | 121 | 0.0 | 3.0 | 0.00 | 0.03 | 0.01 | 81 | 1018.6 |
| 20260509065404 | 78 | 135 | 2.0 | 10.0 | 0.00 | 0.03 | 0.01 | 81 | 1018.7 |
| 20260509064904 | 78 | 96 | 5.0 | 9.0 | 0.00 | 0.03 | 0.01 | 80 | 1018.8 |
| 20260509064404 | 78 | 118 | 3.0 | 12.0 | 0.00 | 0.03 | 0.01 | 80 | 1018.9 |
| 20260509063905 | 78 | 114 | 5.0 | 13.0 | 0.00 | 0.03 | 0.01 | 80 | 1019.0 |
| 20260509063404 | 78 | 106 | 7.0 | 13.0 | 0.00 | 0.03 | 0.01 | 79 | 1019.0 |
| 20260509062904 | 79 | 132 | 6.0 | 13.0 | 0.00 | 0.03 | 0.01 | 79 | 1019.1 |
| 20260509062404 | 78 | 72 | 2.0 | 12.0 | 0.00 | 0.03 | 0.01 | 80 | 1019.1 |
| 20260509061405 | 78 | 90 | 1.0 | 12.0 | 0.00 | 0.03 | 0.01 | 81 | 1019.2 |
| 20260509060904 | 78 | 109 | 7.0 | 14.0 | 0.00 | 0.03 | 0.01 | 80 | 1019.3 |
| 20260509060404 | 78 | 97 | 5.0 | 12.0 | 0.00 | 0.03 | 0.01 | 82 | 1019.3 |
| 20260509055904 | 77 | 83 | 3.0 | 12.0 | 0.01 | 0.03 | 0.01 | 83 | 1019.3 |
| 20260509055404 | 77 | 106 | 2.0 | 9.0 | 0.01 | 0.03 | 0.01 | 84 | 1019.4 |
| 20260509054904 | 76 | 109 | 5.0 | 12.0 | 0.01 | 0.03 | 0.01 | 85 | 1019.4 |
| 20260509054404 | 76 | 99 | 4.0 | 13.0 | 0.01 | 0.03 | 0.01 | 87 | 1019.4 |
| 20260509053904 | 75 | 117 | 3.0 | 9.0 | 0.01 | 0.03 | 0.01 | 88 | 1019.4 |
| 20260509053404 | 74 | 101 | 2.0 | 8.0 | 0.01 | 0.03 | 0.01 | 89 | 1019.6 |
| 20260509052404 | 74 | 125 | 1.0 | 9.0 | 0.01 | 0.03 | 0.01 | 90 | 1019.6 |
| 20260509051904 | 74 | 100 | 3.0 | 14.0 | 0.01 | 0.03 | 0.01 | 90 | 1019.5 |
| 20260509051404 | 74 | 108 | 5.0 | 13.0 | 0.01 | 0.03 | 0.01 | 90 | 1019.6 |
| 20260509050404 | 73 | 79 | 5.0 | 14.0 | 0.01 | 0.03 | 0.01 | 89 | 1019.6 |
| 20260509045904 | 73 | 88 | 1.0 | 8.0 | 0.00 | 0.02 | 0.00 | 88 | 1019.5 |
| 20260509045404 | 73 | 101 | 2.0 | 10.0 | 0.00 | 0.02 | 0.00 | 88 | 1019.5 |
| 20260509044904 | 73 | 110 | 1.0 | 6.0 | 0.00 | 0.02 | 0.00 | 88 | 1019.4 |
| 20260509044404 | 73 | 102 | 6.0 | 13.0 | 0.00 | 0.02 | 0.00 | 87 | 1019.4 |
| 20260509043904 | 74 | 81 | 7.0 | 14.0 | 0.00 | 0.02 | 0.00 | 86 | 1019.4 |
| 20260509043405 | 75 | 78 | 7.0 | 20.0 | 0.00 | 0.02 | 0.00 | 85 | 1019.3 |
| 20260509042904 | 75 | 84 | 5.0 | 14.0 | 0.00 | 0.02 | 0.00 | 84 | 1019.2 |
| 20260509042404 | 76 | 84 | 6.0 | 13.0 | 0.00 | 0.02 | 0.00 | 85 | 1019.0 |
| 20260509041904 | 75 | 87 | 6.0 | 14.0 | 0.00 | 0.02 | 0.00 | 86 | 1018.9 |
| 20260509040404 | 74 | 160 | 1.0 | 6.0 | 0.00 | 0.02 | 0.00 | 87 | 1018.6 |
| 20260509035904 | 74 | 171 | 0.0 | 5.0 | 0.00 | 0.02 | 0.00 | 87 | 1018.5 |
| 20260509035404 | 74 | 155 | 0.0 | 3.0 | 0.00 | 0.02 | 0.00 | 87 | 1018.4 |
| 20260509034904 | 73 | 164 | 0.0 | 5.0 | 0.00 | 0.02 | 0.00 | 87 | 1018.3 |
| 20260509034404 | 73 | 41 | 1.0 | 6.0 | 0.00 | 0.02 | 0.00 | 87 | 1018.3 |
| 20260509033904 | 73 | 170 | 2.0 | 9.0 | 0.00 | 0.02 | 0.00 | 87 | 1018.1 |
| 20260509033404 | 73 | 170 | 1.0 | 6.0 | 0.00 | 0.02 | 0.00 | 87 | 1018.1 |
| 20260509032904 | 73 | 127 | 0.0 | 0.0 | 0.00 | 0.02 | 0.00 | 87 | 1017.9 |
| 20260509032405 | 72 | 177 | 1.0 | 5.0 | 0.00 | 0.02 | 0.00 | 87 | 1017.9 |
| 20260509031904 | 72 | 159 | 0.0 | 6.0 | 0.00 | 0.02 | 0.00 | 86 | 1017.8 |
| 20260509031404 | 72 | 164 | 1.0 | 7.0 | 0.00 | 0.02 | 0.00 | 86 | 1017.7 |
| 20260509030904 | 72 | 173 | 1.0 | 6.0 | 0.00 | 0.02 | 0.00 | 86 | 1017.7 |
| 20260509030404 | 72 | 170 | 1.0 | 6.0 | 0.00 | 0.02 | 0.00 | 86 | 1017.6 |
| 20260509024904 | 72 | 157 | 0.0 | 9.0 | 0.00 | 0.02 | 0.00 | 86 | 1017.5 |
| 20260509024404 | 72 | 179 | 1.0 | 6.0 | 0.00 | 0.02 | 0.00 | 86 | 1017.5 |
| 20260509023404 | 72 | 160 | 0.0 | 3.0 | 0.00 | 0.02 | 0.00 | 86 | 1017.5 |
| 20260509022904 | 73 | 165 | 0.0 | 5.0 | 0.00 | 0.02 | 0.00 | 86 | 1017.5 |
| 20260509022405 | 73 | 155 | 2.0 | 8.0 | 0.00 | 0.02 | 0.00 | 86 | 1017.5 |
| 20260509021404 | 73 | 162 | 2.0 | 7.0 | 0.00 | 0.02 | 0.00 | 86 | 1017.5 |
| 20260509020904 | 73 | 151 | 2.0 | 10.0 | 0.00 | 0.02 | 0.00 | 86 | 1017.3 |
| 20260509020405 | 73 | 158 | 4.0 | 9.0 | 0.00 | 0.02 | 0.00 | 86 | 1017.3 |
| 20260509015904 | 73 | 178 | 1.0 | 7.0 | 0.00 | 0.02 | 0.00 | 86 | 1017.3 |
| 20260509014904 | 73 | 151 | 1.0 | 7.0 | 0.00 | 0.02 | 0.00 | 86 | 1017.2 |
| 20260509014404 | 73 | 162 | 0.0 | 5.0 | 0.00 | 0.02 | 0.00 | 86 | 1017.2 |
| 20260509013905 | 73 | 165 | 1.0 | 6.0 | 0.00 | 0.02 | 0.00 | 86 | 1017.1 |
| 20260509013404 | 73 | 178 | 2.0 | 9.0 | 0.00 | 0.02 | 0.00 | 86 | 1017.0 |
| 20260509012904 | 73 | 155 | 0.0 | 3.0 | 0.00 | 0.02 | 0.00 | 86 | 1017.0 |
| 20260509012405 | 73 | 178 | 1.0 | 5.0 | 0.00 | 0.02 | 0.00 | 85 | 1017.0 |
| 20260509011904 | 73 | 162 | 1.0 | 7.0 | 0.00 | 0.02 | 0.00 | 85 | 1017.0 |
| 20260509010904 | 73 | 98 | 0.0 | 7.0 | 0.00 | 0.02 | 0.00 | 84 | 1016.9 |
| 20260509010404 | 74 | 167 | 1.0 | 6.0 | 0.00 | 0.02 | 0.00 | 84 | 1017.0 |
| 20260509005404 | 73 | 161 | 0.0 | 8.0 | 0.00 | 0.02 | 0.00 | 83 | 1016.9 |
| 20260509004904 | 73 | 153 | 1.0 | 7.0 | 0.00 | 0.02 | 0.00 | 83 | 1016.9 |
| 20260509004404 | 73 | 170 | 1.0 | 7.0 | 0.00 | 0.02 | 0.00 | 83 | 1016.8 |
| 20260509003904 | 73 | 161 | 0.0 | 6.0 | 0.00 | 0.02 | 0.00 | 83 | 1016.8 |
| 20260509003403 | 73 | 151 | 1.0 | 3.0 | 0.00 | 0.02 | 0.00 | 83 | 1016.9 |
| 20260509002904 | 73 | 183 | 0.0 | 5.0 | 0.00 | 0.02 | 0.00 | 83 | 1016.9 |
| 20260509002404 | 73 | 175 | 0.0 | 3.0 | 0.00 | 0.02 | 0.00 | 84 | 1017.0 |
| 20260509001904 | 72 | 180 | 0.0 | 0.0 | 0.00 | 0.02 | 0.00 | 84 | 1017.0 |
| 20260509001404 | 72 | 182 | 0.0 | 0.0 | 0.00 | 0.02 | 0.00 | 84 | 1017.0 |
| 20260509000904 | 72 | 190 | 1.0 | 6.0 | 0.00 | 0.02 | 0.00 | 84 | 1017.1 |
| 20260509000404 | 72 | 180 | 0.0 | 3.0 | 0.00 | 0.02 | 0.00 | 84 | 1017.1 |
| 20260508235404 | 72 | 180 | 0.0 | 6.0 | 0.00 | 0.02 | 0.00 | 84 | 1017.2 |
| 20260508234905 | 72 | 181 | 1.0 | 5.0 | 0.00 | 0.02 | 0.00 | 84 | 1017.2 |
| 20260508234404 | 72 | 177 | 0.0 | 6.0 | 0.00 | 0.02 | 0.00 | 84 | 1017.2 |
| 20260508233904 | 72 | 187 | 0.0 | 3.0 | 0.00 | 0.02 | 0.00 | 84 | 1017.2 |
| 20260508233404 | 72 | 174 | 1.0 | 3.0 | 0.00 | 0.02 | 0.00 | 84 | 1017.2 |
| 20260508232904 | 71 | 163 | 0.0 | 2.0 | 0.00 | 0.02 | 0.00 | 84 | 1017.2 |
| 20260508232404 | 71 | 170 | 0.0 | 8.0 | 0.00 | 0.02 | 0.00 | 84 | 1017.2 |
| 20260508231404 | 71 | 177 | 0.0 | 3.0 | 0.00 | 0.02 | 0.00 | 84 | 1017.3 |
| 20260508230904 | 71 | 166 | 1.0 | 7.0 | 0.00 | 0.02 | 0.00 | 84 | 1017.4 |
| 20260508230404 | 71 | 178 | 0.0 | 5.0 | 0.00 | 0.02 | 0.00 | 84 | 1017.4 |
| 20260508225904 | 71 | 169 | 0.0 | 6.0 | 0.00 | 0.02 | 0.00 | 84 | 1017.5 |
| 20260508224905 | 71 | 178 | 0.0 | 6.0 | 0.00 | 0.02 | 0.00 | 84 | 1017.5 |
| 20260508224404 | 71 | 180 | 1.0 | 6.0 | 0.00 | 0.02 | 0.00 | 85 | 1017.5 |
| 20260508223904 | 71 | 164 | 0.0 | 3.0 | 0.00 | 0.02 | 0.00 | 85 | 1017.5 |
| 20260508223404 | 71 | 151 | 0.0 | 3.0 | 0.00 | 0.02 | 0.00 | 85 | 1017.6 |
| 20260508222904 | 71 | 186 | 0.0 | 3.0 | 0.00 | 0.02 | 0.00 | 85 | 1017.7 |
| 20260508221904 | 71 | 169 | 0.0 | 3.0 | 0.00 | 0.02 | 0.00 | 86 | 1017.7 |
| 20260508221404 | 71 | 157 | 0.0 | 6.0 | 0.00 | 0.02 | 0.00 | 86 | 1017.7 |
| 20260508220404 | 71 | 178 | 0.0 | 3.0 | 0.00 | 0.02 | 0.00 | 87 | 1017.8 |
| 20260508215404 | 71 | 169 | 1.0 | 6.0 | 0.00 | 0.02 | 0.00 | 88 | 1017.9 |
| 20260508214904 | 71 | 171 | 0.0 | 1.0 | 0.00 | 0.02 | 0.00 | 88 | 1018.0 |
| 20260508213904 | 71 | 175 | 0.0 | 3.0 | 0.00 | 0.02 | 0.00 | 89 | 1018.0 |
| 20260508213404 | 71 | 170 | 0.0 | 7.0 | 0.00 | 0.02 | 0.00 | 89 | 1018.0 |
| 20260508212904 | 71 | 172 | 0.0 | 7.0 | 0.00 | 0.02 | 0.00 | 89 | 1018.1 |
| 20260508212404 | 71 | 172 | 0.0 | 3.0 | 0.00 | 0.02 | 0.00 | 89 | 1018.1 |
| 20260508211904 | 71 | 175 | 0.0 | 1.0 | 0.00 | 0.02 | 0.00 | 89 | 1018.1 |
| 20260508211404 | 71 | 148 | 0.0 | 6.0 | 0.00 | 0.02 | 0.00 | 89 | 1018.2 |
| 20260508210904 | 71 | 176 | 1.0 | 6.0 | 0.00 | 0.02 | 0.00 | 89 | 1018.2 |
| 20260508210404 | 71 | 174 | 0.0 | 3.0 | 0.00 | 0.02 | 0.00 | 89 | 1018.2 |
| 20260508205403 | 71 | 165 | 0.0 | 6.0 | 0.00 | 0.02 | 0.00 | 89 | 1018.5 |
| 20260508204904 | 71 | 166 | 0.0 | 7.0 | 0.00 | 0.02 | 0.00 | 89 | 1018.4 |
| 20260508204404 | 71 | 169 | 0.0 | 5.0 | 0.00 | 0.02 | 0.00 | 89 | 1018.5 |
| 20260508203904 | 71 | 161 | 1.0 | 7.0 | 0.00 | 0.02 | 0.00 | 89 | 1018.6 |
| 20260508203404 | 71 | 177 | 1.0 | 7.0 | 0.00 | 0.02 | 0.00 | 89 | 1018.6 |
| 20260508202404 | 71 | 162 | 0.0 | 2.0 | 0.00 | 0.02 | 0.00 | 89 | 1018.6 |
| 20260508201903 | 71 | 168 | 0.0 | 5.0 | 0.00 | 0.02 | 0.00 | 89 | 1018.6 |
| 20260508200904 | 71 | 172 | 1.0 | 6.0 | 0.00 | 0.02 | 0.00 | 89 | 1018.7 |
| 20260508200404 | 71 | 174 | 0.0 | 3.0 | 0.00 | 0.02 | 0.00 | 89 | 1018.6 |
| 20260508195904 | 71 | 175 | 0.0 | 0.0 | 0.00 | 0.02 | 0.02 | 89 | 1018.7 |
| 20260508195405 | 71 | 162 | 0.0 | 3.0 | 0.00 | 0.02 | 0.02 | 89 | 1018.9 |
| 20260508194904 | 72 | 153 | 0.0 | 3.0 | 0.00 | 0.02 | 0.02 | 89 | 1018.9 |
| 20260508194404 | 72 | 161 | 1.0 | 6.0 | 0.00 | 0.02 | 0.02 | 89 | 1018.9 |
| 20260508193904 | 72 | 165 | 0.0 | 0.0 | 0.00 | 0.02 | 0.02 | 89 | 1019.0 |
| 20260508193404 | 72 | 150 | 0.0 | 3.0 | 0.00 | 0.02 | 0.02 | 90 | 1019.0 |
| 20260508192904 | 72 | 181 | 0.0 | 1.0 | 0.00 | 0.02 | 0.02 | 90 | 1019.0 |
| 20260508192404 | 72 | 180 | 0.0 | 3.0 | 0.00 | 0.02 | 0.02 | 90 | 1019.0 |
| 20260508191904 | 72 | 184 | 0.0 | 0.0 | 0.01 | 0.02 | 0.02 | 90 | 1019.0 |
| 20260508191404 | 72 | 176 | 0.0 | 3.0 | 0.01 | 0.02 | 0.02 | 90 | 1019.0 |
| 20260508190904 | 72 | 175 | 0.0 | 7.0 | 0.01 | 0.02 | 0.02 | 90 | 1019.1 |
| 20260508190404 | 72 | 189 | 2.0 | 9.0 | 0.01 | 0.02 | 0.02 | 90 | 1019.0 |
| 20260508185904 | 72 | 182 | 3.0 | 12.0 | 0.01 | 0.02 | 0.02 | 90 | 1019.2 |
| 20260508185404 | 72 | 181 | 2.0 | 13.0 | 0.02 | 0.02 | 0.02 | 90 | 1019.1 |
| 20260508183904 | 72 | 148 | 2.0 | 8.0 | 0.02 | 0.02 | 0.02 | 90 | 1019.2 |
| 20260508183404 | 72 | 146 | 1.0 | 9.0 | 0.02 | 0.02 | 0.02 | 89 | 1019.1 |
| 20260508182904 | 73 | 147 | 3.0 | 12.0 | 0.02 | 0.02 | 0.02 | 89 | 1019.2 |
| 20260508182404 | 73 | 110 | 3.0 | 14.0 | 0.02 | 0.02 | 0.02 | 89 | 1019.3 |
| 20260508181904 | 73 | 153 | 5.0 | 16.0 | 0.02 | 0.02 | 0.02 | 89 | 1019.2 |
| 20260508181404 | 74 | 113 | 6.0 | 18.0 | 0.02 | 0.02 | 0.02 | 88 | 1019.2 |
| 20260508180904 | 74 | 74 | 2.0 | 10.0 | 0.02 | 0.02 | 0.02 | 88 | 1019.1 |
| 20260508175904 | 75 | 84 | 1.0 | 7.0 | 0.02 | 0.02 | 0.02 | 87 | 1018.9 |
| 20260508175404 | 75 | 103 | 4.0 | 9.0 | 0.01 | 0.01 | 0.01 | 86 | 1018.9 |
| 20260508174904 | 74 | 102 | 2.0 | 10.0 | 0.00 | 0.00 | 0.00 | 85 | 1019.0 |
| 20260508174404 | 74 | 169 | 0.0 | 0.0 | 0.00 | 0.00 | 0.00 | 85 | 1018.8 |
| 20260508173904 | 74 | 177 | 0.0 | 0.0 | 0.00 | 0.00 | 0.00 | 86 | 1018.8 |
| 20260508173404 | 74 | 164 | 0.0 | 0.0 | 0.00 | 0.00 | 0.00 | 86 | 1018.8 |
| 20260508172904 | 74 | 166 | 0.0 | 0.0 | 0.00 | 0.00 | 0.00 | 86 | 1018.8 |
| 20260508172404 | 74 | 172 | 0.0 | 0.0 | 0.00 | 0.00 | 0.00 | 85 | 1018.7 |
| 20260508171904 | 74 | 185 | 0.0 | 0.0 | 0.00 | 0.00 | 0.00 | 85 | 1018.7 |
| 20260508171404 | 74 | 160 | 0.0 | 0.0 | 0.00 | 0.00 | 0.00 | 84 | 1018.5 |
| 20260508170904 | 74 | 162 | 0.0 | 0.0 | 0.00 | 0.00 | 0.00 | 84 | 1018.6 |
| 20260508170404 | 75 | 202 | 0.0 | 0.0 | 0.00 | 0.00 | 0.00 | 83 | 1018.5 |
| 20260508165904 | 75 | 165 | 0.0 | 0.0 | 0.00 | 0.00 | 0.00 | 83 | 1018.6 |
| 20260508165405 | 75 | 165 | 0.0 | 0.0 | 0.00 | 0.00 | 0.00 | 83 | 1018.6 |
| 20260508164904 | 75 | 18 | 0.0 | 0.0 | 0.00 | 0.00 | 0.00 | 82 | 1018.5 |
| 20260508164404 | 75 | 186 | 0.0 | 2.0 | 0.00 | 0.00 | 0.00 | 83 | 1018.4 |
| 20260508163904 | 75 | 161 | 0.0 | 3.0 | 0.00 | 0.00 | 0.00 | 83 | 1018.5 |
| 20260508163403 | 74 | 165 | 1.0 | 5.0 | 0.00 | 0.00 | 0.00 | 83 | 1018.4 |
| 20260508162904 | 74 | 175 | 0.0 | 1.0 | 0.00 | 0.00 | 0.00 | 83 | 1018.4 |
| 20260508162404 | 74 | 181 | 1.0 | 5.0 | 0.00 | 0.00 | 0.00 | 83 | 1018.4 |
| 20260508161904 | 74 | 177 | 0.0 | 6.0 | 0.00 | 0.00 | 0.00 | 83 | 1018.3 |
| 20260508161404 | 74 | 180 | 0.0 | 0.0 | 0.00 | 0.00 | 0.00 | 83 | 1018.2 |
| 20260508160904 | 74 | 180 | 0.0 | 0.0 | 0.00 | 0.00 | 0.00 | 82 | 1018.2 |
| 20260508155904 | 74 | 180 | 0.0 | 0.0 | 0.00 | 0.00 | 0.00 | 82 | 1018.2 |
| 20260508154405 | 74 | 167 | 0.0 | 0.0 | 0.00 | 0.00 | 0.00 | 82 | 1018.0 |
| 20260508153904 | 75 | 166 | 0.0 | 0.0 | 0.00 | 0.00 | 0.00 | 82 | 1018.0 |
| 20260508153404 | 75 | 166 | 0.0 | 0.0 | 0.00 | 0.00 | 0.00 | 82 | 1017.9 |
| 20260508152905 | 75 | 166 | 0.0 | 0.0 | 0.00 | 0.00 | 0.00 | 81 | 1017.8 |
| 20260508152404 | 75 | 166 | 0.0 | 0.0 | 0.00 | 0.00 | 0.00 | 81 | 1017.8 |
| 20260508151904 | 76 | 166 | 0.0 | 0.0 | 0.00 | 0.00 | 0.00 | 80 | 1017.7 |
| 20260508150904 | 76 | 166 | 0.0 | 0.0 | 0.00 | 0.00 | 0.00 | 79 | 1017.6 |
| 20260508150404 | 76 | 138 | 0.0 | 0.0 | 0.00 | 0.00 | 0.00 | 79 | 1017.6 |
| 20260508145405 | 77 | 173 | 0.0 | 1.0 | 0.00 | 0.00 | 0.00 | 78 | 1017.4 |
| 20260508144905 | 77 | 122 | 0.0 | 0.0 | 0.00 | 0.00 | 0.00 | 78 | 1017.4 |
| 20260508144403 | 77 | 157 | 0.0 | 0.0 | 0.00 | 0.00 | 0.00 | 78 | 1017.3 |
| 20260508143904 | 77 | 80 | 0.0 | 0.0 | 0.00 | 0.00 | 0.00 | 77 | 1017.3 |
| 20260508143404 | 77 | 144 | 0.0 | 1.0 | 0.00 | 0.00 | 0.00 | 77 | 1017.2 |
| 20260508142904 | 77 | 103 | 0.0 | 0.0 | 0.00 | 0.00 | 0.00 | 77 | 1017.3 |
| 20260508142404 | 77 | 131 | 0.0 | 0.0 | 0.00 | 0.00 | 0.00 | 77 | 1017.2 |
| 20260508141905 | 77 | 80 | 1.0 | 8.0 | 0.00 | 0.00 | 0.00 | 77 | 1017.1 |
| 20260508141404 | 78 | 137 | 0.0 | 5.0 | 0.00 | 0.00 | 0.00 | 77 | 1017.2 |
| 20260508140404 | 78 | 19 | 0.0 | 0.0 | 0.00 | 0.00 | 0.00 | 77 | 1017.1 |
| 20260508135904 | 78 | 117 | 2.0 | 8.0 | 0.00 | 0.00 | 0.00 | 77 | 1017.0 |
| 20260508135404 | 78 | 142 | 0.0 | 5.0 | 0.00 | 0.00 | 0.00 | 77 | 1016.9 |
| 20260508134404 | 79 | 110 | 1.0 | 6.0 | 0.00 | 0.00 | 0.00 | 77 | 1016.9 |
| 20260508133904 | 79 | 118 | 1.0 | 7.0 | 0.00 | 0.00 | 0.00 | 77 | 1016.8 |
| 20260508133405 | 79 | 138 | 0.0 | 3.0 | 0.00 | 0.00 | 0.00 | 77 | 1016.9 |
| 20260508132904 | 79 | 120 | 0.0 | 7.0 | 0.00 | 0.00 | 0.00 | 77 | 1016.9 |
| 20260508132404 | 79 | 121 | 1.0 | 9.0 | 0.00 | 0.00 | 0.00 | 76 | 1016.9 |
| 20260508131904 | 79 | 106 | 2.0 | 9.0 | 0.00 | 0.00 | 0.00 | 76 | 1016.8 |
| 20260508131405 | 80 | 129 | 0.0 | 7.0 | 0.00 | 0.00 | 0.00 | 76 | 1016.8 |
| 20260508130905 | 80 | 83 | 0.0 | 7.0 | 0.00 | 0.00 | 0.00 | 76 | 1016.8 |
| 20260508130404 | 80 | 91 | 0.0 | 8.0 | 0.00 | 0.00 | 0.00 | 76 | 1016.7 |
| 20260508125904 | 80 | 108 | 3.0 | 10.0 | 0.00 | 0.00 | 0.00 | 76 | 1016.7 |
| 20260508125404 | 80 | 137 | 1.0 | 9.0 | 0.00 | 0.00 | 0.00 | 76 | 1016.6 |
| 20260508124405 | 80 | 107 | 0.0 | 9.0 | 0.00 | 0.00 | 0.00 | 76 | 1016.5 |
| 20260508123403 | 80 | 100 | 3.0 | 10.0 | 0.00 | 0.00 | 0.00 | 76 | 1016.4 |
| 20260508122904 | 80 | 107 | 2.0 | 12.0 | 0.00 | 0.00 | 0.00 | 76 | 1016.4 |
| 20260508122404 | 80 | 89 | 5.0 | 13.0 | 0.00 | 0.00 | 0.00 | 76 | 1016.5 |
| 20260508121904 | 80 | 109 | 1.0 | 13.0 | 0.00 | 0.00 | 0.00 | 76 | 1016.4 |
| 20260508121404 | 80 | 86 | 5.0 | 14.0 | 0.00 | 0.00 | 0.00 | 75 | 1016.4 |
| 20260508120904 | 81 | 99 | 6.0 | 12.0 | 0.00 | 0.00 | 0.00 | 74 | 1016.3 |
| 20260508115904 | 81 | 137 | 1.0 | 13.0 | 0.00 | 0.00 | 0.00 | 74 | 1016.2 |
| 20260508114904 | 81 | 105 | 3.0 | 12.0 | 0.00 | 0.00 | 0.00 | 72 | 1016.2 |
| 20260508114404 | 81 | 123 | 2.0 | 12.0 | 0.00 | 0.00 | 0.00 | 72 | 1016.2 |
| 20260508113904 | 81 | 105 | 4.0 | 12.0 | 0.00 | 0.00 | 0.00 | 72 | 1016.2 |
| 20260508113404 | 81 | 100 | 4.0 | 14.0 | 0.00 | 0.00 | 0.00 | 72 | 1016.2 |
| 20260508112904 | 81 | 110 | 5.0 | 16.0 | 0.00 | 0.00 | 0.00 | 71 | 1016.2 |
| 20260508112404 | 81 | 95 | 2.0 | 13.0 | 0.00 | 0.00 | 0.00 | 72 | 1016.2 |
| 20260508111904 | 81 | 106 | 7.0 | 16.0 | 0.00 | 0.00 | 0.00 | 71 | 1016.2 |
| 20260508111404 | 82 | 69 | 5.0 | 18.0 | 0.00 | 0.00 | 0.00 | 71 | 1016.1 |
| 20260508110904 | 82 | 121 | 4.0 | 12.0 | 0.00 | 0.00 | 0.00 | 71 | 1016.1 |
| 20260508110404 | 82 | 109 | 2.0 | 10.0 | 0.00 | 0.00 | 0.00 | 70 | 1016.1 |
| 20260508105904 | 82 | 82 | 3.0 | 18.0 | 0.00 | 0.00 | 0.00 | 70 | 1016.1 |
| 20260508105404 | 82 | 96 | 0.0 | 10.0 | 0.00 | 0.00 | 0.00 | 71 | 1016.1 |
| 20260508104904 | 82 | 78 | 9.0 | 13.0 | 0.00 | 0.00 | 0.00 | 69 | 1016.0 |
| 20260508104404 | 82 | 122 | 3.0 | 9.0 | 0.00 | 0.00 | 0.00 | 70 | 1016.1 |
| 20260508103904 | 82 | 105 | 3.0 | 15.0 | 0.00 | 0.00 | 0.00 | 68 | 1016.1 |
| 20260508103405 | 82 | 102 | 3.0 | 15.0 | 0.00 | 0.00 | 0.00 | 68 | 1016.1 |
| 20260508102904 | 82 | 92 | 6.0 | 15.0 | 0.00 | 0.00 | 0.00 | 68 | 1016.2 |
| 20260508101904 | 82 | 84 | 2.0 | 13.0 | 0.00 | 0.00 | 0.00 | 71 | 1016.2 |
| 20260508101403 | 82 | 88 | 5.0 | 14.0 | 0.00 | 0.00 | 0.00 | 72 | 1016.2 |
| 20260508100904 | 82 | 129 | 5.0 | 15.0 | 0.00 | 0.00 | 0.00 | 72 | 1016.2 |
| 20260508100404 | 82 | 74 | 6.0 | 20.0 | 0.00 | 0.00 | 0.00 | 71 | 1016.3 |
| 20260508095904 | 82 | 87 | 9.0 | 16.0 | 0.00 | 0.00 | 0.00 | 71 | 1016.2 |
| 20260508095405 | 82 | 69 | 7.0 | 16.0 | 0.00 | 0.00 | 0.00 | 69 | 1016.3 |
| 20260508094904 | 82 | 63 | 9.0 | 17.0 | 0.00 | 0.00 | 0.00 | 70 | 1016.3 |
| 20260508094404 | 82 | 66 | 3.0 | 15.0 | 0.00 | 0.00 | 0.00 | 71 | 1016.3 |
| 20260508093904 | 83 | 98 | 2.0 | 13.0 | 0.00 | 0.00 | 0.00 | 72 | 1016.3 |
| 20260508092904 | 82 | 84 | 3.0 | 12.0 | 0.00 | 0.00 | 0.00 | 72 | 1016.4 |
| 20260508092405 | 83 | 84 | 3.0 | 14.0 | 0.00 | 0.00 | 0.00 | 71 | 1016.4 |
| 20260508091904 | 82 | 126 | 1.0 | 12.0 | 0.00 | 0.00 | 0.00 | 72 | 1016.5 |
| 20260508091404 | 82 | 141 | 6.0 | 18.0 | 0.00 | 0.00 | 0.00 | 71 | 1016.5 |
| 20260508090904 | 82 | 100 | 8.0 | 15.0 | 0.00 | 0.00 | 0.00 | 72 | 1016.5 |
| 20260508090404 | 82 | 82 | 2.0 | 15.0 | 0.00 | 0.00 | 0.00 | 73 | 1016.5 |
| 20260508085904 | 82 | 82 | 6.0 | 17.0 | 0.00 | 0.00 | 0.00 | 73 | 1016.5 |
| 20260508085405 | 82 | 118 | 5.0 | 17.0 | 0.00 | 0.00 | 0.00 | 71 | 1016.7 |
| 20260508084904 | 82 | 135 | 2.0 | 16.0 | 0.00 | 0.00 | 0.00 | 71 | 1016.8 |